sensor_id;sensor_type;location;lat;lon;timestamp;P1;durP1;ratioP1;P2;durP2;ratioP2
25988;SDS011;13778;48.236;9.894;2023-02-28T00:02:07;7.43;;;5.05;;
25988;SDS011;13778;48.236;9.894;2023-02-28T00:04:57;10.05;;;5.20;;
25988;SDS011;13778;48.236;9.894;2023-02-28T00:07:50;9.38;;;5.07;;
25988;SDS011;13778;48.236;9.894;2023-02-28T00:10:42;7.40;;;5.25;;
25988;SDS011;13778;48.236;9.894;2023-02-28T00:13:33;9.32;;;4.85;;
25988;SDS011;13778;48.236;9.894;2023-02-28T00:16:24;6.65;;;4.72;;
25988;SDS011;13778;48.236;9.894;2023-02-28T00:19:14;7.90;;;4.93;;
25988;SDS011;13778;48.236;9.894;2023-02-28T00:22:05;7.50;;;5.05;;
25988;SDS011;13778;48.236;9.894;2023-02-28T00:24:55;7.55;;;4.80;;
25988;SDS011;13778;48.236;9.894;2023-02-28T00:27:47;8.10;;;4.55;;
25988;SDS011;13778;48.236;9.894;2023-02-28T00:30:38;7.75;;;4.43;;
25988;SDS011;13778;48.236;9.894;2023-02-28T00:33:28;7.28;;;4.20;;
25988;SDS011;13778;48.236;9.894;2023-02-28T00:36:19;8.20;;;4.85;;
25988;SDS011;13778;48.236;9.894;2023-02-28T00:39:09;7.85;;;4.53;;
25988;SDS011;13778;48.236;9.894;2023-02-28T00:42:00;6.43;;;4.40;;
25988;SDS011;13778;48.236;9.894;2023-02-28T00:44:52;5.93;;;4.47;;
25988;SDS011;13778;48.236;9.894;2023-02-28T00:47:43;6.78;;;4.15;;
25988;SDS011;13778;48.236;9.894;2023-02-28T00:50:33;7.13;;;4.03;;
25988;SDS011;13778;48.236;9.894;2023-02-28T00:53:23;7.05;;;5.00;;
25988;SDS011;13778;48.236;9.894;2023-02-28T00:56:14;5.18;;;4.38;;
25988;SDS011;13778;48.236;9.894;2023-02-28T00:59:04;8.68;;;4.35;;
25988;SDS011;13778;48.236;9.894;2023-02-28T01:01:56;6.15;;;4.50;;
25988;SDS011;13778;48.236;9.894;2023-02-28T01:04:47;6.82;;;4.07;;
25988;SDS011;13778;48.236;9.894;2023-02-28T01:07:37;6.80;;;3.80;;
25988;SDS011;13778;48.236;9.894;2023-02-28T01:10:28;6.97;;;4.35;;
25988;SDS011;13778;48.236;9.894;2023-02-28T01:13:20;7.63;;;3.97;;
25988;SDS011;13778;48.236;9.894;2023-02-28T01:16:12;7.13;;;4.43;;
25988;SDS011;13778;48.236;9.894;2023-02-28T01:19:04;6.00;;;4.18;;
25988;SDS011;13778;48.236;9.894;2023-02-28T01:21:55;5.05;;;3.97;;
25988;SDS011;13778;48.236;9.894;2023-02-28T01:24:45;7.18;;;5.63;;
25988;SDS011;13778;48.236;9.894;2023-02-28T01:27:36;6.28;;;4.32;;
25988;SDS011;13778;48.236;9.894;2023-02-28T01:30:28;6.82;;;4.40;;
25988;SDS011;13778;48.236;9.894;2023-02-28T01:33:19;8.32;;;3.65;;
25988;SDS011;13778;48.236;9.894;2023-02-28T01:36:12;8.23;;;4.32;;
25988;SDS011;13778;48.236;9.894;2023-02-28T01:39:02;4.65;;;3.75;;
25988;SDS011;13778;48.236;9.894;2023-02-28T01:41:53;7.43;;;4.32;;
25988;SDS011;13778;48.236;9.894;2023-02-28T01:45:00;7.80;;;4.63;;
25988;SDS011;13778;48.236;9.894;2023-02-28T01:47:52;7.60;;;4.55;;
25988;SDS011;13778;48.236;9.894;2023-02-28T01:50:44;8.13;;;4.18;;
25988;SDS011;13778;48.236;9.894;2023-02-28T01:53:37;7.63;;;4.57;;
25988;SDS011;13778;48.236;9.894;2023-02-28T01:56:30;7.97;;;4.07;;
25988;SDS011;13778;48.236;9.894;2023-02-28T01:59:22;8.13;;;4.25;;
25988;SDS011;13778;48.236;9.894;2023-02-28T02:02:14;8.43;;;4.97;;
25988;SDS011;13778;48.236;9.894;2023-02-28T02:05:05;15.23;;;4.78;;
25988;SDS011;13778;48.236;9.894;2023-02-28T02:07:56;5.68;;;3.78;;
25988;SDS011;13778;48.236;9.894;2023-02-28T02:13:53;5.40;;;3.90;;
25988;SDS011;13778;48.236;9.894;2023-02-28T02:16:51;7.65;;;4.38;;
25988;SDS011;13778;48.236;9.894;2023-02-28T02:19:48;5.25;;;4.05;;
25988;SDS011;13778;48.236;9.894;2023-02-28T02:22:49;5.50;;;4.35;;
25988;SDS011;13778;48.236;9.894;2023-02-28T02:25:47;8.60;;;4.60;;
25988;SDS011;13778;48.236;9.894;2023-02-28T02:28:50;7.22;;;4.63;;
25988;SDS011;13778;48.236;9.894;2023-02-28T02:31:50;5.97;;;4.28;;
25988;SDS011;13778;48.236;9.894;2023-02-28T02:34:44;8.48;;;4.53;;
25988;SDS011;13778;48.236;9.894;2023-02-28T02:37:38;5.75;;;4.38;;
25988;SDS011;13778;48.236;9.894;2023-02-28T02:40:30;6.60;;;4.63;;
25988;SDS011;13778;48.236;9.894;2023-02-28T02:43:25;8.02;;;4.25;;
25988;SDS011;13778;48.236;9.894;2023-02-28T02:46:19;6.80;;;4.78;;
25988;SDS011;13778;48.236;9.894;2023-02-28T02:49:13;8.48;;;5.28;;
25988;SDS011;13778;48.236;9.894;2023-02-28T02:52:08;5.28;;;4.38;;
25988;SDS011;13778;48.236;9.894;2023-02-28T02:54:59;5.72;;;4.72;;
25988;SDS011;13778;48.236;9.894;2023-02-28T02:57:50;9.98;;;5.15;;
25988;SDS011;13778;48.236;9.894;2023-02-28T03:00:42;8.95;;;5.30;;
25988;SDS011;13778;48.236;9.894;2023-02-28T03:03:33;7.55;;;4.32;;
25988;SDS011;13778;48.236;9.894;2023-02-28T03:06:24;7.47;;;4.68;;
25988;SDS011;13778;48.236;9.894;2023-02-28T03:09:15;8.73;;;5.20;;
25988;SDS011;13778;48.236;9.894;2023-02-28T03:12:07;8.32;;;4.95;;
25988;SDS011;13778;48.236;9.894;2023-02-28T03:15:02;6.90;;;4.63;;
25988;SDS011;13778;48.236;9.894;2023-02-28T03:18:01;7.65;;;4.70;;
25988;SDS011;13778;48.236;9.894;2023-02-28T03:20:54;7.50;;;5.13;;
25988;SDS011;13778;48.236;9.894;2023-02-28T03:23:51;9.43;;;4.80;;
25988;SDS011;13778;48.236;9.894;2023-02-28T03:26:48;7.05;;;4.68;;
25988;SDS011;13778;48.236;9.894;2023-02-28T03:29:41;8.20;;;5.25;;
25988;SDS011;13778;48.236;9.894;2023-02-28T03:32:34;9.75;;;5.38;;
25988;SDS011;13778;48.236;9.894;2023-02-28T03:35:26;6.35;;;4.43;;
25988;SDS011;13778;48.236;9.894;2023-02-28T03:38:19;8.68;;;4.97;;
25988;SDS011;13778;48.236;9.894;2023-02-28T03:41:12;6.70;;;4.95;;
25988;SDS011;13778;48.236;9.894;2023-02-28T03:44:05;5.82;;;4.65;;
25988;SDS011;13778;48.236;9.894;2023-02-28T03:46:57;6.90;;;4.70;;
25988;SDS011;13778;48.236;9.894;2023-02-28T03:49:49;8.05;;;5.15;;
25988;SDS011;13778;48.236;9.894;2023-02-28T03:52:42;10.90;;;5.28;;
25988;SDS011;13778;48.236;9.894;2023-02-28T03:55:34;8.70;;;4.82;;
25988;SDS011;13778;48.236;9.894;2023-02-28T03:58:28;8.60;;;5.72;;
25988;SDS011;13778;48.236;9.894;2023-02-28T04:01:21;9.05;;;5.43;;
25988;SDS011;13778;48.236;9.894;2023-02-28T04:04:14;9.45;;;5.85;;
25988;SDS011;13778;48.236;9.894;2023-02-28T04:07:06;8.07;;;5.63;;
25988;SDS011;13778;48.236;9.894;2023-02-28T04:09:57;8.30;;;5.28;;
25988;SDS011;13778;48.236;9.894;2023-02-28T04:12:47;12.70;;;5.50;;
25988;SDS011;13778;48.236;9.894;2023-02-28T04:15:38;8.52;;;6.00;;
25988;SDS011;13778;48.236;9.894;2023-02-28T04:18:30;10.55;;;5.53;;
25988;SDS011;13778;48.236;9.894;2023-02-28T04:21:20;9.20;;;6.15;;
25988;SDS011;13778;48.236;9.894;2023-02-28T04:24:12;9.00;;;5.07;;
25988;SDS011;13778;48.236;9.894;2023-02-28T04:27:03;10.73;;;5.32;;
25988;SDS011;13778;48.236;9.894;2023-02-28T04:29:54;13.02;;;6.22;;
25988;SDS011;13778;48.236;9.894;2023-02-28T04:32:44;9.30;;;6.47;;
25988;SDS011;13778;48.236;9.894;2023-02-28T04:35:36;7.35;;;4.68;;
25988;SDS011;13778;48.236;9.894;2023-02-28T04:38:27;9.43;;;5.55;;
25988;SDS011;13778;48.236;9.894;2023-02-28T04:41:18;9.13;;;6.22;;
25988;SDS011;13778;48.236;9.894;2023-02-28T04:44:08;9.77;;;5.88;;
25988;SDS011;13778;48.236;9.894;2023-02-28T04:46:59;10.10;;;6.78;;
25988;SDS011;13778;48.236;9.894;2023-02-28T04:49:49;13.15;;;6.45;;
25988;SDS011;13778;48.236;9.894;2023-02-28T04:52:41;9.73;;;6.32;;
25988;SDS011;13778;48.236;9.894;2023-02-28T04:55:31;9.90;;;6.78;;
25988;SDS011;13778;48.236;9.894;2023-02-28T04:58:22;11.45;;;6.57;;
25988;SDS011;13778;48.236;9.894;2023-02-28T05:01:17;9.55;;;6.07;;
25988;SDS011;13778;48.236;9.894;2023-02-28T05:04:08;7.40;;;6.03;;
25988;SDS011;13778;48.236;9.894;2023-02-28T05:06:58;8.85;;;6.07;;
25988;SDS011;13778;48.236;9.894;2023-02-28T05:09:50;13.65;;;6.88;;
25988;SDS011;13778;48.236;9.894;2023-02-28T05:12:42;10.98;;;6.55;;
25988;SDS011;13778;48.236;9.894;2023-02-28T05:15:32;8.82;;;5.85;;
25988;SDS011;13778;48.236;9.894;2023-02-28T05:18:23;12.15;;;7.55;;
25988;SDS011;13778;48.236;9.894;2023-02-28T05:21:21;16.55;;;8.10;;
25988;SDS011;13778;48.236;9.894;2023-02-28T05:24:13;10.93;;;6.90;;
25988;SDS011;13778;48.236;9.894;2023-02-28T05:27:04;13.02;;;7.80;;
25988;SDS011;13778;48.236;9.894;2023-02-28T05:29:55;12.68;;;7.90;;
25988;SDS011;13778;48.236;9.894;2023-02-28T05:32:48;15.52;;;7.57;;
25988;SDS011;13778;48.236;9.894;2023-02-28T05:35:40;12.50;;;7.70;;
25988;SDS011;13778;48.236;9.894;2023-02-28T05:38:30;10.63;;;7.65;;
25988;SDS011;13778;48.236;9.894;2023-02-28T05:41:21;12.52;;;7.50;;
25988;SDS011;13778;48.236;9.894;2023-02-28T05:44:13;13.82;;;8.30;;
25988;SDS011;13778;48.236;9.894;2023-02-28T05:47:04;13.95;;;8.70;;
25988;SDS011;13778;48.236;9.894;2023-02-28T05:49:54;10.43;;;5.97;;
25988;SDS011;13778;48.236;9.894;2023-02-28T05:52:48;12.07;;;8.00;;
25988;SDS011;13778;48.236;9.894;2023-02-28T05:55:38;11.80;;;7.78;;
25988;SDS011;13778;48.236;9.894;2023-02-28T05:58:30;16.50;;;8.82;;
25988;SDS011;13778;48.236;9.894;2023-02-28T06:01:33;14.98;;;8.88;;
25988;SDS011;13778;48.236;9.894;2023-02-28T06:04:24;13.05;;;9.43;;
25988;SDS011;13778;48.236;9.894;2023-02-28T06:07:14;13.73;;;8.88;;
25988;SDS011;13778;48.236;9.894;2023-02-28T06:12:58;15.23;;;9.43;;
25988;SDS011;13778;48.236;9.894;2023-02-28T06:15:49;14.52;;;9.45;;
25988;SDS011;13778;48.236;9.894;2023-02-28T06:18:41;19.10;;;9.73;;
25988;SDS011;13778;48.236;9.894;2023-02-28T06:21:31;13.93;;;8.43;;
25988;SDS011;13778;48.236;9.894;2023-02-28T06:24:22;13.63;;;8.48;;
25988;SDS011;13778;48.236;9.894;2023-02-28T06:27:13;17.52;;;9.48;;
25988;SDS011;13778;48.236;9.894;2023-02-28T06:30:04;14.52;;;8.55;;
25988;SDS011;13778;48.236;9.894;2023-02-28T06:32:54;14.23;;;8.60;;
25988;SDS011;13778;48.236;9.894;2023-02-28T06:35:47;14.57;;;8.43;;
25988;SDS011;13778;48.236;9.894;2023-02-28T06:38:38;15.48;;;9.07;;
25988;SDS011;13778;48.236;9.894;2023-02-28T06:41:28;13.02;;;9.20;;
25988;SDS011;13778;48.236;9.894;2023-02-28T06:44:19;13.77;;;8.98;;
25988;SDS011;13778;48.236;9.894;2023-02-28T06:47:09;15.77;;;9.43;;
25988;SDS011;13778;48.236;9.894;2023-02-28T06:50:00;15.77;;;10.15;;
25988;SDS011;13778;48.236;9.894;2023-02-28T06:52:52;15.40;;;9.50;;
25988;SDS011;13778;48.236;9.894;2023-02-28T06:55:44;14.20;;;9.55;;
25988;SDS011;13778;48.236;9.894;2023-02-28T06:58:35;16.17;;;11.15;;
25988;SDS011;13778;48.236;9.894;2023-02-28T07:04:16;16.45;;;10.85;;
25988;SDS011;13778;48.236;9.894;2023-02-28T07:07:07;12.90;;;9.60;;
25988;SDS011;13778;48.236;9.894;2023-02-28T07:09:59;19.38;;;11.18;;
25988;SDS011;13778;48.236;9.894;2023-02-28T07:12:49;15.88;;;10.07;;
25988;SDS011;13778;48.236;9.894;2023-02-28T07:15:40;14.75;;;9.77;;
25988;SDS011;13778;48.236;9.894;2023-02-28T07:18:31;16.48;;;10.38;;
25988;SDS011;13778;48.236;9.894;2023-02-28T07:21:21;15.98;;;10.63;;
25988;SDS011;13778;48.236;9.894;2023-02-28T07:24:12;19.17;;;11.30;;
25988;SDS011;13778;48.236;9.894;2023-02-28T07:27:06;18.13;;;11.30;;
25988;SDS011;13778;48.236;9.894;2023-02-28T07:29:56;18.65;;;10.50;;
25988;SDS011;13778;48.236;9.894;2023-02-28T07:32:46;19.10;;;11.23;;
25988;SDS011;13778;48.236;9.894;2023-02-28T07:35:37;20.10;;;11.77;;
25988;SDS011;13778;48.236;9.894;2023-02-28T07:38:27;17.75;;;10.48;;
25988;SDS011;13778;48.236;9.894;2023-02-28T07:41:19;22.77;;;12.93;;
25988;SDS011;13778;48.236;9.894;2023-02-28T07:44:11;22.17;;;12.40;;
25988;SDS011;13778;48.236;9.894;2023-02-28T07:47:01;19.58;;;12.27;;
25988;SDS011;13778;48.236;9.894;2023-02-28T07:49:52;17.45;;;11.85;;
25988;SDS011;13778;48.236;9.894;2023-02-28T07:52:42;20.30;;;12.18;;
25988;SDS011;13778;48.236;9.894;2023-02-28T07:55:33;18.35;;;10.60;;
25988;SDS011;13778;48.236;9.894;2023-02-28T07:58:24;23.08;;;13.20;;
25988;SDS011;13778;48.236;9.894;2023-02-28T08:01:15;20.45;;;11.85;;
25988;SDS011;13778;48.236;9.894;2023-02-28T08:04:06;18.35;;;11.95;;
25988;SDS011;13778;48.236;9.894;2023-02-28T08:06:56;18.67;;;12.40;;
25988;SDS011;13778;48.236;9.894;2023-02-28T08:09:47;17.85;;;11.27;;
25988;SDS011;13778;48.236;9.894;2023-02-28T08:12:37;17.80;;;11.82;;
25988;SDS011;13778;48.236;9.894;2023-02-28T08:15:28;20.40;;;12.90;;
25988;SDS011;13778;48.236;9.894;2023-02-28T08:18:20;18.42;;;12.25;;
25988;SDS011;13778;48.236;9.894;2023-02-28T08:24:00;22.80;;;13.00;;
25988;SDS011;13778;48.236;9.894;2023-02-28T08:26:51;19.50;;;11.68;;
25988;SDS011;13778;48.236;9.894;2023-02-28T08:29:41;19.10;;;10.77;;
25988;SDS011;13778;48.236;9.894;2023-02-28T08:32:31;16.38;;;11.15;;
25988;SDS011;13778;48.236;9.894;2023-02-28T08:35:23;21.15;;;12.55;;
25988;SDS011;13778;48.236;9.894;2023-02-28T08:38:14;18.23;;;13.10;;
25988;SDS011;13778;48.236;9.894;2023-02-28T08:41:05;20.85;;;12.38;;
25988;SDS011;13778;48.236;9.894;2023-02-28T08:43:56;19.00;;;13.10;;
25988;SDS011;13778;48.236;9.894;2023-02-28T08:46:46;21.98;;;12.70;;
25988;SDS011;13778;48.236;9.894;2023-02-28T08:49:37;22.08;;;12.75;;
25988;SDS011;13778;48.236;9.894;2023-02-28T08:52:28;20.80;;;12.15;;
25988;SDS011;13778;48.236;9.894;2023-02-28T08:55:19;19.85;;;12.35;;
25988;SDS011;13778;48.236;9.894;2023-02-28T08:58:10;18.00;;;11.93;;
25988;SDS011;13778;48.236;9.894;2023-02-28T09:01:06;22.70;;;12.65;;
25988;SDS011;13778;48.236;9.894;2023-02-28T09:04:00;19.65;;;13.60;;
25988;SDS011;13778;48.236;9.894;2023-02-28T09:06:51;21.55;;;13.75;;
25988;SDS011;13778;48.236;9.894;2023-02-28T09:09:43;23.35;;;12.90;;
25988;SDS011;13778;48.236;9.894;2023-02-28T09:12:44;22.35;;;15.02;;
25988;SDS011;13778;48.236;9.894;2023-02-28T09:15:36;18.27;;;12.73;;
25988;SDS011;13778;48.236;9.894;2023-02-28T09:18:27;19.23;;;13.65;;
25988;SDS011;13778;48.236;9.894;2023-02-28T09:21:18;21.77;;;13.80;;
25988;SDS011;13778;48.236;9.894;2023-02-28T09:24:09;19.55;;;13.25;;
25988;SDS011;13778;48.236;9.894;2023-02-28T09:27:02;22.00;;;13.80;;
25988;SDS011;13778;48.236;9.894;2023-02-28T09:29:52;19.67;;;13.80;;
25988;SDS011;13778;48.236;9.894;2023-02-28T09:32:43;22.27;;;13.57;;
25988;SDS011;13778;48.236;9.894;2023-02-28T09:35:41;21.48;;;13.55;;
25988;SDS011;13778;48.236;9.894;2023-02-28T09:38:32;19.85;;;13.68;;
25988;SDS011;13778;48.236;9.894;2023-02-28T09:41:23;25.15;;;16.02;;
25988;SDS011;13778;48.236;9.894;2023-02-28T09:47:08;21.38;;;14.27;;
25988;SDS011;13778;48.236;9.894;2023-02-28T09:50:03;24.42;;;15.55;;
25988;SDS011;13778;48.236;9.894;2023-02-28T09:52:59;22.85;;;14.70;;
25988;SDS011;13778;48.236;9.894;2023-02-28T09:55:52;23.27;;;13.13;;
25988;SDS011;13778;48.236;9.894;2023-02-28T09:58:46;21.25;;;13.07;;
25988;SDS011;13778;48.236;9.894;2023-02-28T10:01:39;22.42;;;13.68;;
25988;SDS011;13778;48.236;9.894;2023-02-28T10:04:44;22.17;;;13.30;;
25988;SDS011;13778;48.236;9.894;2023-02-28T10:07:46;24.08;;;15.10;;
25988;SDS011;13778;48.236;9.894;2023-02-28T10:10:41;21.98;;;13.45;;
25988;SDS011;13778;48.236;9.894;2023-02-28T10:13:32;24.27;;;15.05;;
25988;SDS011;13778;48.236;9.894;2023-02-28T10:16:25;27.63;;;16.05;;
25988;SDS011;13778;48.236;9.894;2023-02-28T10:19:18;25.33;;;16.83;;
25988;SDS011;13778;48.236;9.894;2023-02-28T10:22:12;20.70;;;13.77;;
25988;SDS011;13778;48.236;9.894;2023-02-28T10:25:05;20.98;;;15.00;;
25988;SDS011;13778;48.236;9.894;2023-02-28T10:28:09;21.45;;;14.80;;
25988;SDS011;13778;48.236;9.894;2023-02-28T10:30:59;23.15;;;14.10;;
25988;SDS011;13778;48.236;9.894;2023-02-28T10:33:50;17.85;;;13.20;;
25988;SDS011;13778;48.236;9.894;2023-02-28T10:36:41;22.10;;;15.02;;
25988;SDS011;13778;48.236;9.894;2023-02-28T10:39:39;23.10;;;15.27;;
25988;SDS011;13778;48.236;9.894;2023-02-28T10:42:29;21.67;;;14.00;;
25988;SDS011;13778;48.236;9.894;2023-02-28T10:45:20;20.15;;;14.10;;
25988;SDS011;13778;48.236;9.894;2023-02-28T10:48:26;20.88;;;14.68;;
25988;SDS011;13778;48.236;9.894;2023-02-28T10:51:18;21.27;;;14.93;;
25988;SDS011;13778;48.236;9.894;2023-02-28T10:54:15;22.02;;;13.82;;
25988;SDS011;13778;48.236;9.894;2023-02-28T10:57:14;20.13;;;14.77;;
25988;SDS011;13778;48.236;9.894;2023-02-28T11:00:08;22.98;;;14.10;;
25988;SDS011;13778;48.236;9.894;2023-02-28T11:03:02;23.42;;;15.82;;
25988;SDS011;13778;48.236;9.894;2023-02-28T11:06:15;22.42;;;15.05;;
25988;SDS011;13778;48.236;9.894;2023-02-28T11:09:21;28.17;;;18.13;;
25988;SDS011;13778;48.236;9.894;2023-02-28T11:12:20;23.15;;;15.60;;
25988;SDS011;13778;48.236;9.894;2023-02-28T11:15:18;23.30;;;14.85;;
25988;SDS011;13778;48.236;9.894;2023-02-28T11:18:19;23.60;;;16.20;;
25988;SDS011;13778;48.236;9.894;2023-02-28T11:21:15;32.17;;;18.70;;
25988;SDS011;13778;48.236;9.894;2023-02-28T11:24:12;27.30;;;16.92;;
25988;SDS011;13778;48.236;9.894;2023-02-28T11:27:13;25.83;;;17.52;;
25988;SDS011;13778;48.236;9.894;2023-02-28T11:30:26;22.27;;;14.93;;
25988;SDS011;13778;48.236;9.894;2023-02-28T11:33:19;21.65;;;13.68;;
25988;SDS011;13778;48.236;9.894;2023-02-28T11:36:11;19.52;;;13.50;;
25988;SDS011;13778;48.236;9.894;2023-02-28T11:39:07;20.33;;;14.35;;
25988;SDS011;13778;48.236;9.894;2023-02-28T11:42:02;29.15;;;15.75;;
25988;SDS011;13778;48.236;9.894;2023-02-28T11:44:58;26.48;;;15.77;;
25988;SDS011;13778;48.236;9.894;2023-02-28T11:47:55;20.88;;;15.32;;
25988;SDS011;13778;48.236;9.894;2023-02-28T11:50:52;21.13;;;14.10;;
25988;SDS011;13778;48.236;9.894;2023-02-28T11:53:50;19.60;;;14.25;;
25988;SDS011;13778;48.236;9.894;2023-02-28T11:56:43;22.65;;;13.27;;
25988;SDS011;13778;48.236;9.894;2023-02-28T11:59:42;22.55;;;14.68;;
25988;SDS011;13778;48.236;9.894;2023-02-28T12:02:39;21.23;;;13.93;;
25988;SDS011;13778;48.236;9.894;2023-02-28T12:05:38;20.23;;;13.52;;
25988;SDS011;13778;48.236;9.894;2023-02-28T12:08:40;21.95;;;14.10;;
25988;SDS011;13778;48.236;9.894;2023-02-28T12:11:35;21.13;;;13.65;;
25988;SDS011;13778;48.236;9.894;2023-02-28T12:14:40;20.70;;;13.88;;
25988;SDS011;13778;48.236;9.894;2023-02-28T12:17:38;19.70;;;13.32;;
25988;SDS011;13778;48.236;9.894;2023-02-28T12:20:32;18.42;;;14.10;;
25988;SDS011;13778;48.236;9.894;2023-02-28T12:23:30;20.05;;;14.50;;
25988;SDS011;13778;48.236;9.894;2023-02-28T12:26:29;21.25;;;14.00;;
25988;SDS011;13778;48.236;9.894;2023-02-28T12:29:23;20.92;;;13.57;;
25988;SDS011;13778;48.236;9.894;2023-02-28T12:32:15;22.40;;;15.27;;
25988;SDS011;13778;48.236;9.894;2023-02-28T12:35:10;26.83;;;14.80;;
25988;SDS011;13778;48.236;9.894;2023-02-28T12:38:02;25.63;;;15.40;;
25988;SDS011;13778;48.236;9.894;2023-02-28T12:43:46;22.08;;;14.65;;
25988;SDS011;13778;48.236;9.894;2023-02-28T12:46:38;20.98;;;14.30;;
25988;SDS011;13778;48.236;9.894;2023-02-28T12:49:31;25.02;;;16.30;;
25988;SDS011;13778;48.236;9.894;2023-02-28T12:52:23;19.42;;;14.57;;
25988;SDS011;13778;48.236;9.894;2023-02-28T12:55:15;21.13;;;15.23;;
25988;SDS011;13778;48.236;9.894;2023-02-28T12:58:11;23.98;;;14.10;;
25988;SDS011;13778;48.236;9.894;2023-02-28T13:01:14;21.73;;;14.38;;
25988;SDS011;13778;48.236;9.894;2023-02-28T13:04:32;21.75;;;14.77;;
25988;SDS011;13778;48.236;9.894;2023-02-28T13:07:38;22.48;;;15.80;;
25988;SDS011;13778;48.236;9.894;2023-02-28T13:10:38;23.10;;;14.68;;
25988;SDS011;13778;48.236;9.894;2023-02-28T13:13:29;26.98;;;15.00;;
25988;SDS011;13778;48.236;9.894;2023-02-28T13:16:21;19.83;;;13.98;;
25988;SDS011;13778;48.236;9.894;2023-02-28T13:22:02;22.63;;;14.23;;
25988;SDS011;13778;48.236;9.894;2023-02-28T13:24:53;20.75;;;13.60;;
25988;SDS011;13778;48.236;9.894;2023-02-28T13:27:44;18.00;;;13.55;;
25988;SDS011;13778;48.236;9.894;2023-02-28T13:34:15;20.30;;;14.13;;
25988;SDS011;13778;48.236;9.894;2023-02-28T13:40:31;22.25;;;14.63;;
25988;SDS011;13778;48.236;9.894;2023-02-28T13:43:29;18.30;;;12.97;;
25988;SDS011;13778;48.236;9.894;2023-02-28T13:49:51;20.30;;;14.48;;
25988;SDS011;13778;48.236;9.894;2023-02-28T13:52:44;20.85;;;13.98;;
25988;SDS011;13778;48.236;9.894;2023-02-28T13:55:41;19.13;;;13.90;;
25988;SDS011;13778;48.236;9.894;2023-02-28T13:58:40;18.83;;;13.20;;
25988;SDS011;13778;48.236;9.894;2023-02-28T14:01:35;20.83;;;13.90;;
25988;SDS011;13778;48.236;9.894;2023-02-28T14:07:41;20.83;;;13.40;;
25988;SDS011;13778;48.236;9.894;2023-02-28T14:10:35;21.58;;;14.50;;
25988;SDS011;13778;48.236;9.894;2023-02-28T14:13:37;21.42;;;15.52;;
25988;SDS011;13778;48.236;9.894;2023-02-28T14:16:37;21.25;;;14.55;;
25988;SDS011;13778;48.236;9.894;2023-02-28T14:19:29;23.27;;;14.75;;
25988;SDS011;13778;48.236;9.894;2023-02-28T14:25:37;27.45;;;14.85;;
25988;SDS011;13778;48.236;9.894;2023-02-28T14:28:35;18.70;;;13.60;;
25988;SDS011;13778;48.236;9.894;2023-02-28T14:31:32;27.95;;;15.15;;
25988;SDS011;13778;48.236;9.894;2023-02-28T14:34:36;17.10;;;11.98;;
25988;SDS011;13778;48.236;9.894;2023-02-28T14:37:27;20.20;;;13.77;;
25988;SDS011;13778;48.236;9.894;2023-02-28T14:43:18;19.15;;;12.95;;
25988;SDS011;13778;48.236;9.894;2023-02-28T14:46:10;23.17;;;13.05;;
25988;SDS011;13778;48.236;9.894;2023-02-28T14:49:03;19.70;;;13.82;;
25988;SDS011;13778;48.236;9.894;2023-02-28T14:52:01;22.27;;;14.20;;
25988;SDS011;13778;48.236;9.894;2023-02-28T14:54:52;20.77;;;14.00;;
25988;SDS011;13778;48.236;9.894;2023-02-28T14:57:50;19.65;;;13.27;;
25988;SDS011;13778;48.236;9.894;2023-02-28T15:00:47;17.45;;;12.55;;
25988;SDS011;13778;48.236;9.894;2023-02-28T15:03:38;18.88;;;13.13;;
25988;SDS011;13778;48.236;9.894;2023-02-28T15:06:31;18.98;;;13.75;;
25988;SDS011;13778;48.236;9.894;2023-02-28T15:09:21;16.20;;;12.38;;
25988;SDS011;13778;48.236;9.894;2023-02-28T15:12:13;18.77;;;13.15;;
25988;SDS011;13778;48.236;9.894;2023-02-28T15:15:04;19.02;;;12.98;;
25988;SDS011;13778;48.236;9.894;2023-02-28T15:17:57;16.70;;;11.13;;
25988;SDS011;13778;48.236;9.894;2023-02-28T15:20:48;18.00;;;12.15;;
25988;SDS011;13778;48.236;9.894;2023-02-28T15:23:39;20.45;;;13.57;;
25988;SDS011;13778;48.236;9.894;2023-02-28T15:26:30;19.73;;;13.30;;
25988;SDS011;13778;48.236;9.894;2023-02-28T15:29:21;18.77;;;13.13;;
25988;SDS011;13778;48.236;9.894;2023-02-28T15:32:27;18.20;;;13.32;;
25988;SDS011;13778;48.236;9.894;2023-02-28T15:35:20;21.00;;;13.55;;
25988;SDS011;13778;48.236;9.894;2023-02-28T15:38:15;21.58;;;14.05;;
25988;SDS011;13778;48.236;9.894;2023-02-28T15:41:20;19.35;;;13.35;;
25988;SDS011;13778;48.236;9.894;2023-02-28T15:44:22;20.35;;;14.18;;
25988;SDS011;13778;48.236;9.894;2023-02-28T15:47:16;19.45;;;13.07;;
25988;SDS011;13778;48.236;9.894;2023-02-28T15:50:09;19.75;;;14.70;;
25988;SDS011;13778;48.236;9.894;2023-02-28T15:53:03;19.83;;;12.57;;
25988;SDS011;13778;48.236;9.894;2023-02-28T15:58:44;18.17;;;12.82;;
25988;SDS011;13778;48.236;9.894;2023-02-28T16:01:35;19.40;;;12.80;;
25988;SDS011;13778;48.236;9.894;2023-02-28T16:04:26;17.02;;;11.90;;
25988;SDS011;13778;48.236;9.894;2023-02-28T16:07:20;18.92;;;11.90;;
25988;SDS011;13778;48.236;9.894;2023-02-28T16:10:12;19.80;;;13.15;;
25988;SDS011;13778;48.236;9.894;2023-02-28T16:13:03;18.08;;;12.20;;
25988;SDS011;13778;48.236;9.894;2023-02-28T16:15:54;23.50;;;12.60;;
25988;SDS011;13778;48.236;9.894;2023-02-28T16:18:44;20.52;;;12.35;;
25988;SDS011;13778;48.236;9.894;2023-02-28T16:21:35;21.60;;;13.00;;
25988;SDS011;13778;48.236;9.894;2023-02-28T16:24:26;20.55;;;12.60;;
25988;SDS011;13778;48.236;9.894;2023-02-28T16:27:19;19.88;;;13.55;;
25988;SDS011;13778;48.236;9.894;2023-02-28T16:30:14;19.25;;;13.70;;
25988;SDS011;13778;48.236;9.894;2023-02-28T16:33:07;22.05;;;13.98;;
25988;SDS011;13778;48.236;9.894;2023-02-28T16:35:58;20.05;;;13.20;;
25988;SDS011;13778;48.236;9.894;2023-02-28T16:38:48;21.13;;;12.55;;
25988;SDS011;13778;48.236;9.894;2023-02-28T16:41:40;19.65;;;13.15;;
25988;SDS011;13778;48.236;9.894;2023-02-28T16:44:33;16.90;;;12.15;;
25988;SDS011;13778;48.236;9.894;2023-02-28T16:47:25;19.27;;;13.38;;
25988;SDS011;13778;48.236;9.894;2023-02-28T16:50:16;26.08;;;15.27;;
25988;SDS011;13778;48.236;9.894;2023-02-28T16:53:07;23.45;;;15.35;;
25988;SDS011;13778;48.236;9.894;2023-02-28T16:55:58;23.42;;;14.88;;
25988;SDS011;13778;48.236;9.894;2023-02-28T16:58:50;21.25;;;13.45;;
25988;SDS011;13778;48.236;9.894;2023-02-28T17:01:42;18.58;;;12.75;;
25988;SDS011;13778;48.236;9.894;2023-02-28T17:07:23;20.27;;;12.95;;
25988;SDS011;13778;48.236;9.894;2023-02-28T17:10:15;21.77;;;14.48;;
25988;SDS011;13778;48.236;9.894;2023-02-28T17:13:05;25.30;;;15.52;;
25988;SDS011;13778;48.236;9.894;2023-02-28T17:18:49;22.58;;;14.05;;
25988;SDS011;13778;48.236;9.894;2023-02-28T17:21:40;18.80;;;13.18;;
25988;SDS011;13778;48.236;9.894;2023-02-28T17:24:31;22.33;;;13.60;;
25988;SDS011;13778;48.236;9.894;2023-02-28T17:27:22;25.40;;;12.93;;
25988;SDS011;13778;48.236;9.894;2023-02-28T17:30:16;18.80;;;12.95;;
25988;SDS011;13778;48.236;9.894;2023-02-28T17:33:06;22.08;;;14.52;;
25988;SDS011;13778;48.236;9.894;2023-02-28T17:35:58;20.45;;;13.52;;
25988;SDS011;13778;48.236;9.894;2023-02-28T17:41:39;24.23;;;15.13;;
25988;SDS011;13778;48.236;9.894;2023-02-28T17:44:29;22.52;;;14.43;;
25988;SDS011;13778;48.236;9.894;2023-02-28T17:47:20;29.45;;;17.48;;
25988;SDS011;13778;48.236;9.894;2023-02-28T17:50:11;27.23;;;15.70;;
25988;SDS011;13778;48.236;9.894;2023-02-28T17:53:04;32.03;;;18.10;;
25988;SDS011;13778;48.236;9.894;2023-02-28T17:55:54;25.73;;;15.05;;